Data for 12/20/2014

Time Sea-Level Adjusted Pressure Absolute Pressure Temperature Relative Humidity Dew Point   
(mb) (inHg) (mb) (inHg) (C) (F) (%) (C) (F)
00:05 1015 29.97 845 24.95 -0.2 31.7 81 -3 26.5
00:10 1016 30 845 24.95 0.1 32.1 79 -3.1 26.5
00:15 1015 29.97 845 24.95 -0.1 31.9 79 -3.3 26.1
00:20 1015 29.97 845 24.95 0.3 32.5 77 -3.3 26
00:25 1016 30 845 24.95 -0.1 31.9 77 -3.6 25.6
00:30 1016 30 845 24.95 0.6 33 69 -4.4 24.1
00:35 1016 30 845 24.95 1.4 34.5 68 -3.8 25.2
00:40 1016 30 845 24.95 1.5 34.6 68 -3.9 25.1
00:45 1016 30 845 24.95 1.4 34.5 70 -3.5 25.6
00:50 1016 30 845 24.95 0.9 33.6 74 -3.3 26.1
00:55 1016 30 845 24.95 0.4 32.8 78 -2.9 26.8
01:00 1016 30 845 24.95 0.1 32.1 82 -2.7 27.1
01:05 1016 30 845 24.95 -0.3 31.4 86 -2.5 27.6
01:10 1016 30 845 24.95 -0.6 31 87 -2.4 27.6
01:15 1016 30 845 24.95 -0.5 31 87 -2.5 27.6
01:20 1016 30 845 24.95 -0.4 31.3 86 -2.4 27.7
01:25 1016 30 845 24.95 -0.2 31.7 86 -2.3 27.8
01:30 1016 30 845 24.95 -0.2 31.6 83 -2.7 27.1
01:35 1016 30 845 24.95 -0.6 30.9 85 -2.8 27
01:40 1016 30 845 24.95 -0.7 30.8 84 -3 26.6
01:45 1016 30 845 24.95 -0.5 31.1 81 -3.4 25.9
01:50 1016 30 845 24.95 -0.9 30.5 84 -3.2 26.2
01:55 1016 30 845 24.95 -0.4 31.3 80 -3.4 25.9
02:00 1016 30 846 24.98 -0.3 31.4 81 -3.2 26.2
02:05 1016 30 845 24.95 -0 32 79 -3.2 26.3
02:10 1016 30 845 24.95 0.2 32.3 78 -3.2 26.3
02:15 1016 30 846 24.98 0.2 32.3 78 -3.2 26.3
02:20 1016 30 845 24.95 0 32 79 -3.2 26.3
02:25 1016 30 845 24.95 0.5 32.8 77 -3 26.5
02:30 1016 30 845 24.95 0.2 32.3 79 -3.1 26.4
02:35 1016 30 845 24.95 0.1 32.2 78 -3.3 26.1
02:40 1016 30 845 24.95 0.2 32.3 77 -3.4 25.9
02:45 1016 30 845 24.95 0.3 32.5 77 -3.3 26
02:50 1016 30 845 24.95 0.1 32.2 78 -3.4 25.9
02:55 1016 30 845 24.95 0 32 78 -3.4 25.8
03:00 1016 30 845 24.95 0.2 32.4 75 -3.7 25.3
03:05 1016 30 845 24.95 0.4 32.8 76 -3.4 25.9
03:10 1016 30 845 24.95 0.7 33.2 74 -3.5 25.8
03:15 1016 30 845 24.95 0.8 33.4 73 -3.6 25.6
03:20 1016 30 845 24.95 0.1 32.3 76 -3.6 25.6
03:25 1016 30 845 24.95 -0 31.9 76 -3.7 25.4
03:30 1016 30 845 24.95 0 32 76 -3.8 25.2
03:35 1016 30 845 24.95 -0.1 31.8 77 -3.7 25.3
03:40 1016 30 845 24.95 0 32 76 -3.7 25.3
03:45 1016 30 845 24.95 0.3 32.6 75 -3.6 25.6
03:50 1016 30 845 24.95 0.5 32.9 74 -3.5 25.6
03:55 1016 30 845 24.95 0.4 32.7 75 -3.5 25.7
04:00 1016 30 845 24.95 0.3 32.5 76 -3.4 25.8
04:05 1016 30 845 24.95 0.2 32.3 76 -3.5 25.6
04:10 1016 30 845 24.95 0.1 32.1 78 -3.3 26
04:15 1016 30 845 24.95 -0.2 31.6 78 -3.6 25.5
04:20 1016 30 845 24.95 -0.3 31.5 78 -3.7 25.3
04:25 1016 30 845 24.95 -0.3 31.4 78 -3.7 25.3
04:30 1016 30 845 24.95 -0.5 31.2 76 -4.2 24.5
04:35 1016 30 845 24.95 -1 30.2 81 -3.9 25
04:40 1016 30 845 24.95 -1.7 29 82 -4.4 24.1
04:45 1016 30 845 24.95 -1.4 29.6 81 -4.3 24.3
04:50 1016 30 845 24.95 -1.3 29.7 81 -4.1 24.6
04:55 1016 30 845 24.95 -1.2 29.8 78 -4.5 23.9
05:00 1016 30 845 24.95 -1.7 29 83 -4.3 24.3
05:05 1016 30 845 24.95 -2 28.5 82 -4.6 23.8
05:10 1016 30 845 24.95 -2 28.4 81 -4.8 23.3
05:15 1016 30 845 24.95 -2.1 28.2 82 -4.8 23.4
05:20 1016 30 845 24.95 -1.8 28.8 81 -4.7 23.6
05:25 1016 30 845 24.95 -1.3 29.7 78 -4.7 23.5
05:30 1016 30 845 24.95 -1.3 29.7 78 -4.6 23.7
05:35 1016 30 845 24.95 -1.8 28.8 79 -4.9 23.1
05:40 1016 30 845 24.95 -2.1 28.3 80 -5.1 22.8
05:45 1016 30 845 24.95 -2.3 27.8 80 -5.3 22.5
05:50 1016 30 845 24.95 -2.6 27.3 81 -5.4 22.3
05:55 1016 30 845 24.95 -2.6 27.4 80 -5.6 22
06:00 1016 30 845 24.95 -2.2 28 78 -5.5 22
06:05 1016 30 845 24.95 -2 28.5 77 -5.5 22.1
06:10 1016 30 845 24.95 -2.1 28.2 76 -5.7 21.7
06:15 1016 30 845 24.95 -2.1 28.2 77 -5.7 21.8
06:20 1016 30 845 24.95 -1.8 28.8 77 -5.3 22.4
06:25 1016 30 845 24.95 -1.5 29.4 74 -5.5 22
06:30 1016 30 845 24.95 -1.4 29.6 70 -6.1 21
06:35 1016 30 845 24.95 -1.4 29.5 71 -6 21.2
06:40 1016 30 845 24.95 -1.3 29.6 68 -6.5 20.3
06:45 1016 30 845 24.95 -1 30.3 66 -6.6 20.1
06:50 1016 30 845 24.95 -1 30.3 65 -6.8 19.8
06:55 1016 30 845 24.95 -0.8 30.5 63 -7.1 19.2
07:00 1016 30 845 24.95 -0.9 30.4 63 -7.1 19.2
07:05 1016 30 845 24.95 -1 30.3 62 -7.3 18.8
07:10 1016 30 845 24.95 -0.8 30.5 61 -7.4 18.7
07:15 1016 30 845 24.95 -0.3 31.4 61 -7 19.5
07:20 1016 30 845 24.95 -0.5 31.1 62 -6.9 19.7
07:25 1016 30 845 24.95 -0.8 30.6 63 -7 19.4
07:30 1016 30 845 24.95 -1 30.3 65 -6.8 19.8
07:35 1016 30 845 24.95 -1 30.2 66 -6.6 20.1
07:40 1016 30 845 24.95 -0.9 30.5 66 -6.4 20.5
07:45 1016 30 845 24.95 -0.7 30.7 66 -6.3 20.7
07:50 1016 30 845 24.95 -0.7 30.7 67 -6.1 21
07:55 1016 30 845 24.95 -0.8 30.6 68 -5.9 21.4
08:00 1016 30 845 24.95 -0.9 30.4 70 -5.6 21.8
08:05 1016 30 845 24.95 -0.8 30.6 70 -5.7 21.8
08:10 1016 30 845 24.95 -0.7 30.7 69 -5.7 21.7
08:15 1016 30 845 24.95 -0.6 31 69 -5.6 22
08:20 1016 30 845 24.95 -0.6 31 69 -5.6 22
08:25 1016 30 845 24.95 -0.6 30.9 69 -5.6 22
08:30 1016 30 845 24.95 -0.6 31 69 -5.5 22.1
08:35 1016 30 845 24.95 -0.7 30.8 70 -5.5 22.1
08:40 1016 30 845 24.95 -0.7 30.7 70 -5.6 21.9
08:45 1016 30 845 24.95 -0.6 31 69 -5.5 22.1
08:50 1016 30 845 24.95 -0.8 30.5 71 -5.5 22.1
08:55 1016 30 845 24.95 -1.3 29.6 73 -5.5 22.1
09:00 1015 29.97 845 24.95 -1.5 29.3 72 -5.9 21.3
09:05 1015 29.97 845 24.95 -1.4 29.5 72 -5.8 21.6
09:10 1015 29.97 845 24.95 -1.3 29.6 71 -5.9 21.3
09:15 1015 29.97 845 24.95 -1.2 29.9 70 -6 21.2
09:20 1015 29.97 845 24.95 -1 30.3 69 -6 21.2
09:25 1015 29.97 845 24.95 -0.8 30.6 68 -6 21.2
09:30 1015 29.97 845 24.95 -0.8 30.6 67 -6.1 21.1
09:35 1015 29.97 845 24.95 -0.8 30.6 69 -5.9 21.4
09:40 1015 29.97 845 24.95 -1.2 29.9 72 -5.7 21.8
09:45 1015 29.97 844 24.92 -1.7 28.9 74 -5.8 21.5
09:50 1015 29.97 844 24.92 -1.7 29 71 -6.3 20.7
09:55 1015 29.97 844 24.92 -1.5 29.4 72 -5.9 21.5
10:00 1015 29.97 844 24.92 -1.8 28.8 73 -6.1 21.1
10:05 1015 29.97 844 24.92 -2.1 28.1 73 -6.4 20.5
10:10 1015 29.97 844 24.92 -2.3 27.9 74 -6.3 20.6
10:15 1015 29.97 844 24.92 -2.2 28.1 73 -6.3 20.6
10:20 1015 29.97 844 24.92 -2.1 28.3 71 -6.6 20.2
10:25 1015 29.97 844 24.92 -1.7 29 69 -6.6 20.2
10:30 1015 29.97 844 24.92 -1.4 29.5 68 -6.5 20.3
10:35 1015 29.97 844 24.92 -1.3 29.7 67 -6.6 20.1
10:40 1015 29.97 844 24.92 -1.2 29.9 67 -6.5 20.4
10:45 1015 29.97 844 24.92 -1 30.2 66 -6.5 20.3
10:50 1015 29.97 844 24.92 -0.9 30.3 66 -6.4 20.5
10:55 1015 29.97 844 24.92 -0.8 30.6 65 -6.5 20.3
11:00 1015 29.97 844 24.92 -0.6 30.9 65 -6.4 20.5
11:05 1015 29.97 844 24.92 -0.6 30.9 66 -6.2 20.8
11:10 1015 29.97 844 24.92 -0.5 31.1 65 -6.2 20.8
11:15 1015 29.97 844 24.92 -1.1 30.1 68 -6.3 20.7
11:20 1015 29.97 844 24.92 -1.3 29.7 68 -6.4 20.5
11:25 1015 29.97 844 24.92 -1.3 29.7 68 -6.4 20.4
11:30 1015 29.97 844 24.92 -1.2 29.8 67 -6.5 20.3
11:35 1015 29.97 844 24.92 -0.9 30.3 67 -6.4 20.6
11:40 1015 29.97 844 24.92 -0.9 30.4 67 -6.3 20.6
11:45 1015 29.97 844 24.92 -0.7 30.8 66 -6.3 20.7
11:50 1015 29.97 844 24.92 -0.5 31.2 65 -6.3 20.6
11:55 1015 29.97 844 24.92 -0.5 31.1 64 -6.4 20.4
12:00 1015 29.97 844 24.92 -0.3 31.4 63 -6.5 20.2
12:05 1015 29.97 844 24.92 -0.1 31.8 61 -6.7 20
12:10 1015 29.97 844 24.92 0.3 32.5 61 -6.3 20.7
12:15 1015 29.97 844 24.92 0.8 33.5 58 -6.5 20.3
12:20 1015 29.97 844 24.92 1.1 33.9 58 -6.3 20.7
12:25 1015 29.97 844 24.92 1.3 34.3 58 -6.1 20.9
12:30 1015 29.97 844 24.92 1.4 34.5 57 -6.2 20.8
12:35 1015 29.97 844 24.92 1.3 34.3 57 -6.4 20.5
12:40 1015 29.97 844 24.92 1.6 34.8 57 -6 21.2
12:45 1015 29.97 844 24.92 1.6 35 57 -6 21.2
12:50 1015 29.97 844 24.92 1.6 34.9 57 -5.9 21.3
12:55 1015 29.97 844 24.92 1.6 34.9 58 -5.9 21.4
13:00 1014 29.94 844 24.92 1.7 35 59 -5.6 22
13:05 1014 29.94 844 24.92 1.6 34.8 57 -5.9 21.3
13:10 1014 29.94 844 24.92 1.6 35 58 -5.8 21.6
13:15 1014 29.94 843 24.89 1.6 34.9 61 -5.1 22.7
13:20 1014 29.94 843 24.89 1.5 34.6 60 -5.5 22.1
13:25 1014 29.94 843 24.89 1.2 34.2 61 -5.5 22.1
13:30 1014 29.94 843 24.89 1.2 34.1 58 -6.1 21
13:35 1014 29.94 843 24.89 1.3 34.3 59 -5.9 21.3
13:40 1014 29.94 843 24.89 1.5 34.7 57 -6.2 20.9
13:45 1014 29.94 843 24.89 1.5 34.7 57 -6.2 20.9
13:50 1014 29.94 843 24.89 1.7 35 56 -6.1 21
13:55 1014 29.94 843 24.89 1.7 35.1 55 -6.4 20.5
14:00 1014 29.94 843 24.89 1.7 35.1 56 -6.1 21
14:05 1014 29.94 843 24.89 1.8 35.3 56 -6.1 21
14:10 1014 29.94 843 24.89 1.7 35 57 -5.8 21.5
14:15 1013 29.91 843 24.89 1.8 35.2 57 -5.8 21.5
14:20 1013 29.91 843 24.89 1.9 35.4 55 -6.2 20.9
14:25 1013 29.91 843 24.89 1.8 35.3 57 -5.9 21.4
14:30 1013 29.91 843 24.89 2 35.5 55 -6.2 20.9
14:35 1013 29.91 842 24.86 2.2 36 56 -5.7 21.7
14:40 1013 29.91 842 24.86 2.3 36.2 55 -5.7 21.7
14:45 1013 29.91 842 24.86 2.1 35.8 55 -6 21.3
14:50 1013 29.91 842 24.86 2.3 36.1 53 -6.4 20.5
14:55 1013 29.91 842 24.86 2.4 36.4 52 -6.3 20.6
15:00 1013 29.91 842 24.86 2.3 36.2 53 -6.2 20.9
15:05 1013 29.91 842 24.86 2.4 36.4 52 -6.5 20.3
15:10 1013 29.91 842 24.86 2.4 36.3 52 -6.5 20.3
15:15 1013 29.91 842 24.86 2.4 36.3 53 -6.3 20.7
15:20 1012 29.88 842 24.86 2.3 36.2 53 -6.4 20.5
15:25 1012 29.88 842 24.86 2.4 36.4 52 -6.3 20.6
15:30 1012 29.88 842 24.86 2.4 36.4 53 -6.2 20.8
15:35 1012 29.88 842 24.86 2.5 36.4 53 -6.2 20.9
15:40 1012 29.88 842 24.86 2.5 36.4 52 -6.5 20.4
15:45 1013 29.91 842 24.86 2.6 36.6 53 -6 21.2
15:50 1013 29.91 842 24.86 2.7 36.9 51 -6.4 20.5
15:55 1013 29.91 842 24.86 2.8 37 51 -6.3 20.6
16:00 1013 29.91 842 24.86 2.9 37.2 52 -6.1 21
16:05 1013 29.91 842 24.86 2.8 37.1 53 -5.7 21.7
16:10 1013 29.91 842 24.86 2.8 37 54 -5.5 22.1
16:15 1013 29.91 842 24.86 2.9 37.1 54 -5.7 21.8
16:20 1013 29.91 842 24.86 2.9 37.2 55 -5.3 22.4
16:25 1013 29.91 842 24.86 2.9 37.2 55 -5.4 22.3
16:30 1013 29.91 842 24.86 2.8 37.1 55 -5.4 22.3
16:35 1012 29.88 842 24.86 2.8 37.1 55 -5.2 22.6
16:40 1012 29.88 842 24.86 2.5 36.5 56 -5.3 22.4
16:45 1012 29.88 842 24.86 2 35.6 58 -5.5 22.1
16:50 1012 29.88 841 24.83 1.6 34.9 58 -5.7 21.8
16:55 1012 29.88 841 24.83 1.6 34.8 58 -5.9 21.4
17:00 1012 29.88 841 24.83 1.5 34.6 60 -5.4 22.3
17:05 1012 29.88 841 24.83 1.4 34.5 59 -5.8 21.5
17:10 1012 29.88 841 24.83 1.4 34.5 58 -5.9 21.4
17:15 1012 29.88 841 24.83 1.1 34 60 -5.9 21.5
17:20 1012 29.88 841 24.83 1.1 33.9 60 -5.9 21.4
17:25 1012 29.88 841 24.83 0.8 33.5 63 -5.5 22.1
17:30 1012 29.88 841 24.83 0.6 33.1 62 -5.8 21.5
17:35 1012 29.88 841 24.83 0.6 33.1 61 -6 21.2
17:40 1012 29.88 841 24.83 0.7 33.3 61 -5.9 21.3
17:45 1012 29.88 841 24.83 0.5 32.8 63 -5.9 21.4
17:50 1012 29.88 841 24.83 0.4 32.7 63 -5.8 21.5
17:55 1012 29.88 841 24.83 0.4 32.7 62 -6.1 21
18:00 1012 29.88 841 24.83 0.5 33 62 -5.9 21.3
18:05 1012 29.88 841 24.83 0.2 32.4 62 -6.1 21
18:10 1012 29.88 841 24.83 -0.1 31.9 66 -5.8 21.6
18:15 1012 29.88 841 24.83 -0.5 31.1 68 -5.7 21.8
18:20 1012 29.88 841 24.83 -0.7 30.7 67 -6 21.1
18:25 1012 29.88 841 24.83 -0.5 31.2 65 -6.3 20.7
18:30 1012 29.88 841 24.83 0.1 32.3 62 -6.4 20.6
18:35 1012 29.88 841 24.83 0.1 32.2 64 -5.8 21.5
18:40 1012 29.88 841 24.83 -0.3 31.5 66 -5.9 21.4
18:45 1012 29.88 841 24.83 -0.5 31.1 67 -6 21.3
18:50 1011 29.85 841 24.83 -0.8 30.5 67 -6.3 20.7
18:55 1011 29.85 841 24.83 -0.6 30.9 66 -6.2 20.8
19:00 1011 29.85 840 24.81 -0.4 31.3 63 -6.5 20.2
19:05 1011 29.85 840 24.81 0 32 62 -6.5 20.3
19:10 1011 29.85 840 24.81 0.3 32.5 61 -6.3 20.6
19:15 1011 29.85 840 24.81 0.1 32.2 62 -6.2 20.8
19:20 1011 29.85 840 24.81 -0.2 31.6 65 -6.1 21
19:25 1011 29.85 840 24.81 -0.5 31.1 64 -6.4 20.4
19:30 1011 29.85 840 24.81 -0.6 30.9 66 -6.2 20.8
19:35 1011 29.85 840 24.81 -0.7 30.7 65 -6.6 20.2
19:40 1011 29.85 840 24.81 -0.4 31.3 63 -6.6 20.1
19:45 1011 29.85 840 24.81 -0.4 31.4 65 -6.2 20.8
19:50 1011 29.85 840 24.81 -0.7 30.7 66 -6.4 20.5
19:55 1011 29.85 840 24.81 -0.7 30.7 67 -6.1 21
20:00 1011 29.85 840 24.81 -0.8 30.6 69 -5.8 21.6
20:05 1011 29.85 840 24.81 -0.6 31 70 -5.5 22.2
20:10 1011 29.85 840 24.81 -0.5 31.2 69 -5.5 22.2
20:15 1011 29.85 840 24.81 -0.3 31.4 69 -5.3 22.4
20:20 1010 29.83 840 24.81 -0.3 31.4 68 -5.4 22.2
20:25 1010 29.83 840 24.81 -0 31.9 66 -5.7 21.8
20:30 1010 29.83 840 24.81 0.2 32.4 64 -5.8 21.5
20:35 1010 29.83 840 24.81 0.6 33.1 63 -5.6 21.9
20:40 1010 29.83 839 24.78 0.7 33.3 62 -5.7 21.7
20:45 1010 29.83 839 24.78 0.9 33.7 63 -5.3 22.4
20:50 1010 29.83 839 24.78 0.3 32.5 65 -5.5 22
20:55 1010 29.83 839 24.78 0.3 32.5 65 -5.4 22.2
21:00 1010 29.83 839 24.78 0.1 32.3 67 -5.3 22.4
21:05 1010 29.83 839 24.78 0 32 67 -5.4 22.2
21:10 1010 29.83 839 24.78 0.3 32.5 64 -5.7 21.7
21:15 1010 29.83 839 24.78 0.6 33.1 64 -5.5 22.1
21:20 1009 29.8 839 24.78 0.8 33.4 63 -5.4 22.3
21:25 1009 29.8 839 24.78 0.8 33.4 63 -5.4 22.2
21:30 1009 29.8 838 24.75 0.9 33.6 62 -5.5 22.1
21:35 1009 29.8 838 24.75 1 33.8 63 -5.3 22.4
21:40 1009 29.8 838 24.75 0.9 33.6 62 -5.5 22
21:45 1009 29.8 838 24.75 1 33.9 61 -5.6 21.8
21:50 1009 29.8 838 24.75 1.2 34.2 61 -5.5 22.1
21:55 1009 29.8 838 24.75 1.2 34.2 60 -5.6 21.9
22:00 1009 29.8 838 24.75 1.4 34.6 60 -5.5 22
22:05 1009 29.8 838 24.75 1.5 34.6 60 -5.5 22
22:10 1009 29.8 838 24.75 1.4 34.5 60 -5.6 22
22:15 1009 29.8 838 24.75 1.3 34.3 62 -5.3 22.5
22:20 1009 29.8 838 24.75 1.2 34.1 60 -5.6 21.8
22:25 1009 29.8 838 24.75 1.4 34.6 60 -5.5 22.1
22:30 1009 29.8 838 24.75 1.5 34.7 60 -5.4 22.2
22:35 1009 29.8 838 24.75 1.5 34.7 59 -5.7 21.7
22:40 1009 29.8 838 24.75 1.5 34.8 60 -5.5 22.2
22:45 1009 29.8 838 24.75 1.8 35.2 58 -5.7 21.7
22:50 1009 29.8 838 24.75 1.7 35.1 59 -5.5 22.2
22:55 1009 29.8 838 24.75 1.8 35.2 59 -5.4 22.3
23:00 1009 29.8 838 24.75 1.6 34.8 58 -5.8 21.6
23:05 1009 29.8 838 24.75 1.9 35.4 57 -5.9 21.4
23:10 1009 29.8 838 24.75 2.2 36 55 -6 21.3
23:15 1009 29.8 838 24.75 2.4 36.3 54 -5.9 21.3
23:20 1009 29.8 838 24.75 2.6 36.8 52 -6.2 20.8
23:25 1009 29.8 838 24.75 3.3 37.9 50 -6.1 21
23:30 1009 29.8 838 24.75 3.5 38.4 54 -4.9 23.1
23:35 1009 29.8 838 24.75 2.7 36.9 54 -5.6 21.9
23:40 1009 29.8 838 24.75 3 37.4 52 -6 21.2
23:45 1008 29.77 838 24.75 3.6 38.5 50 -5.9 21.4
23:50 1008 29.77 838 24.75 3.3 38 55 -4.9 23.2
23:55 1008 29.77 838 24.75 2.2 35.9 58 -5.1 22.7
24:00 1008 29.77 838 24.75 1.4 34.5 61 -5.3 22.4